Terminal Aerodrome Forecast
Issued by NWS Nashville, TN

Home | Current Version | Previous Version | Text Only | Print | Product List | Glossary On
Versions: 1 2 3 4 5 6 7 8 9 10 11 12 13 14
000
FTUS44 KOHX 021125
TAFBNA
TAF
KBNA 021125Z 0212/0312 00000KT P6SM BKN250
     FM021600 VRB06KT P6SM SCT050 BKN250
     FM030300 01003KT P6SM BKN250=

USA.gov is the U.S. government's official web portal to all federal, state and local government web resources and services.